Nautilus — OUYX2 — position and weather

sailwx.info

Track history (hours):
 
Tides and Currents Weather Stations Pressure Air Temp Water Temp Dewpoint Dewpoint Depression Visibility Wind Speed Wind Dir Waves Ship Positions

Nautilus

Last reported at 2014-Sep-01 12:10 UTC. Time now 2014-Sep-02 01:50 UTC.
Position N 60°46' E 004°46'.

Length 120 m; draft 7 m.

Type: Ship. MMSI: 219425000.

Date/timePositionNaut miles runAvg speedWind from/ knotsBaromVisibWave heightAir tempDewpointWater temp
2014-Sep-01 12:10N 60°46' E 004°46'6 7.1
2014-Sep-01 11:23N 60°51' E 004°51'153 4.6
2014-Aug-31 02:15N 58°19' E 005°32'1014.6
2014-Aug-31 01:33N 58°12' E 005°47'13513.3
2014-Aug-30 15:25N 57°49' E 009°57'1214.0
2014-Aug-30 14:33N 57°50' E 010°20'1413.9
2014-Aug-30 13:33N 57°48' E 010°45'1414.0
2014-Aug-30 12:33N 57°34' E 010°45'1814.5
2014-Aug-30 11:17N 57°15' E 010°43'1114.5
2014-Aug-30 10:33N 57°05' E 010°48'3213.2
2014-Aug-30 08:08N 56°34' E 011°04'30 1.3
2014-Aug-29 09:20N 56°04' E 011°07'1112.5
2014-Aug-29 08:27N 56°13' E 011°19'1112.1
2014-Aug-29 07:33N 56°23' E 011°28'1211.9
2014-Aug-29 06:33N 56°33' E 011°39'1211.7
2014-Aug-29 05:33N 56°43' E 011°50'1111.4
2014-Aug-29 04:33N 56°54' E 011°46'1212.3
2014-Aug-29 03:33N 57°06' E 011°38'1211.6
2014-Aug-29 02:33N 57°17' E 011°31'1211.8
2014-Aug-29 01:33N 57°28' E 011°24'1211.7
2014-Aug-29 00:33N 57°39' E 011°21'1211.8
2014-Aug-28 23:33N 57°51' E 011°18'1212.2
2014-Aug-28 22:33N 58°03' E 011°15'1211.9
2014-Aug-28 21:33N 58°15' E 011°14'9 2.7
2014-Aug-28 18:15N 58°21' E 011°26'0 0.0
2014-Aug-27 19:06N 58°21' E 011°26'1 1.3
2014-Aug-27 18:32N 58°21' E 011°25'8 8.6
2014-Aug-27 17:33N 58°15' E 011°13'4 4.1
2014-Aug-27 16:31N 58°11' E 011°12'0 0.0
2014-Aug-27 15:19N 58°11' E 011°12'0 0.0
2014-Aug-27 14:31N 58°11' E 011°12'0 0.0
2014-Aug-27 13:22N 58°11' E 011°12'0 0.0
2014-Aug-27 12:04N 58°11' E 011°12'0 0.0
2014-Aug-27 06:10N 58°11' E 011°12'0 0.0
2014-Aug-27 05:28N 58°11' E 011°12'0 0.0
2014-Aug-27 04:07N 58°11' E 011°12'0 0.0
2014-Aug-27 02:28N 58°11' E 011°12'0 0.0
2014-Aug-27 00:31N 58°11' E 011°12'0 0.0
2014-Aug-26 21:22N 58°11' E 011°12'0 0.0
2014-Aug-26 20:10N 58°11' E 011°12'0 0.0
2014-Aug-26 12:28N 58°11' E 011°12'0 0.0
2014-Aug-26 11:31N 58°11' E 011°12'1 0.3
2014-Aug-26 07:33N 58°10' E 011°13'1313.3
2014-Aug-26 06:33N 57°57' E 011°17'1110.5
2014-Aug-26 05:33N 57°47' E 011°20'9 8.7
2014-Aug-26 04:33N 57°38' E 011°22'10 9.7
2014-Aug-26 03:33N 57°30' E 011°33'1010.1
2014-Aug-26 02:32N 57°22' E 011°43'1010.0
2014-Aug-26 01:32N 57°13' E 011°53'45 8.9
2014-Aug-25 20:28N 56°30' E 012°18'7 7.2
2014-Aug-25 19:33N 56°24' E 012°21'8 8.2
2014-Aug-25 18:33N 56°16' E 012°26'8 8.3
2014-Aug-25 17:33N 56°08' E 012°32'9 8.9
2014-Aug-25 16:33N 56°01' E 012°41'3 3.1
2014-Aug-25 15:31N 55°58' E 012°44'0 0.0
2014-Aug-25 14:31N 55°58' E 012°44'0 0.0
2014-Aug-25 13:31N 55°58' E 012°44'0 0.0
2014-Aug-25 12:31N 55°58' E 012°44'0 0.0
2014-Aug-25 11:31N 55°58' E 012°44'0 0.0
2014-Aug-25 10:31N 55°58' E 012°44'0 0.0
2014-Aug-25 09:31N 55°58' E 012°44'0 0.0
2014-Aug-25 08:31N 55°58' E 012°44'0 0.0
2014-Aug-25 07:31N 55°58' E 012°44'0 0.0
2014-Aug-25 06:31N 55°58' E 012°44'0 0.0
2014-Aug-25 05:31N 55°58' E 012°44'0 0.0
2014-Aug-25 04:31N 55°58' E 012°44'0 0.0
2014-Aug-25 03:31N 55°58' E 012°44'0 0.0
2014-Aug-25 02:31N 55°58' E 012°44'0 0.0
2014-Aug-25 01:31N 55°58' E 012°44'0 0.0
2014-Aug-25 00:31N 55°58' E 012°44'0 0.0
2014-Aug-24 23:31N 55°58' E 012°44'0 0.0
2014-Aug-24 22:31N 55°58' E 012°44'0 0.0
2014-Aug-24 21:31N 55°58' E 012°44'0 0.0
2014-Aug-24 20:31N 55°58' E 012°44'0 0.0
2014-Aug-24 19:31N 55°58' E 012°44'0 0.0
2014-Aug-24 18:31N 55°58' E 012°44'0 0.0
2014-Aug-24 17:31N 55°58' E 012°44'0 0.0
2014-Aug-24 16:31N 55°58' E 012°44'0 0.0
2014-Aug-24 15:31N 55°58' E 012°44'0 0.0
2014-Aug-24 14:31N 55°58' E 012°44'0 0.0
2014-Aug-24 13:31N 55°58' E 012°44'0 0.0
2014-Aug-24 12:31N 55°58' E 012°44'0 0.0
2014-Aug-24 11:31N 55°58' E 012°44'0 0.0
2014-Aug-24 10:31N 55°58' E 012°44'0 0.0
2014-Aug-24 09:31N 55°58' E 012°44'8 8.6
2014-Aug-24 08:33N 55°50' E 012°44'1313.1
2014-Aug-24 07:33N 55°37' E 012°42'1111.2
2014-Aug-24 06:33N 55°26' E 012°41'8 8.3
2014-Aug-24 05:33N 55°18' E 012°45'9 8.8
2014-Aug-24 04:33N 55°16' E 012°60'8 8.3
2014-Aug-24 03:33N 55°15' E 013°15'8 8.2
2014-Aug-24 02:33N 55°15' E 013°29'10 8.6
2014-Aug-24 01:26N 55°14' E 013°46'16 8.5
2014-Aug-23 23:31N 55°13' E 014°14'8 8.2
2014-Aug-23 22:33N 55°19' E 014°24'9 9.1
2014-Aug-23 21:31N 55°26' E 014°34'8 8.4
2014-Aug-23 20:33N 55°31' E 014°47'10 8.2
2014-Aug-23 19:20N 55°36' E 015°02'128 8.1
2014-Aug-23 03:33N 57°14' E 017°30'9 8.9
2014-Aug-23 02:33N 57°22' E 017°36'9 8.7
2014-Aug-23 01:33N 57°30' E 017°42'  
Track history (hours):
 
Tides and Currents Weather Stations Pressure Air Temp Water Temp Dewpoint Dewpoint Depression Visibility Wind Speed Wind Dir Waves Ship Positions

Nautilus

Last reported at 2014-Sep-01 12:10 UTC. Time now 2014-Sep-02 01:50 UTC.
Position N 60°46' E 004°46'.

Length 120 m; draft 7 m.

Type: Ship. MMSI: 219425000.

Date/timePositionNaut miles runAvg speedWind from/ knotsBaromVisibWave heightAir tempDewpointWater temp
2014-Sep-01 12:10N 60°46' E 004°46'6 7.1
2014-Sep-01 11:23N 60°51' E 004°51'153 4.6
2014-Aug-31 02:15N 58°19' E 005°32'1014.6
2014-Aug-31 01:33N 58°12' E 005°47'13513.3
2014-Aug-30 15:25N 57°49' E 009°57'1214.0
2014-Aug-30 14:33N 57°50' E 010°20'1413.9
2014-Aug-30 13:33N 57°48' E 010°45'1414.0
2014-Aug-30 12:33N 57°34' E 010°45'1814.5
2014-Aug-30 11:17N 57°15' E 010°43'1114.5
2014-Aug-30 10:33N 57°05' E 010°48'3213.2
2014-Aug-30 08:08N 56°34' E 011°04'30 1.3
2014-Aug-29 09:20N 56°04' E 011°07'1112.5
2014-Aug-29 08:27N 56°13' E 011°19'1112.1
2014-Aug-29 07:33N 56°23' E 011°28'1211.9
2014-Aug-29 06:33N 56°33' E 011°39'1211.7
2014-Aug-29 05:33N 56°43' E 011°50'1111.4
2014-Aug-29 04:33N 56°54' E 011°46'1212.3
2014-Aug-29 03:33N 57°06' E 011°38'1211.6
2014-Aug-29 02:33N 57°17' E 011°31'1211.8
2014-Aug-29 01:33N 57°28' E 011°24'1211.7
2014-Aug-29 00:33N 57°39' E 011°21'1211.8
2014-Aug-28 23:33N 57°51' E 011°18'1212.2
2014-Aug-28 22:33N 58°03' E 011°15'1211.9
2014-Aug-28 21:33N 58°15' E 011°14'9 2.7
2014-Aug-28 18:15N 58°21' E 011°26'0 0.0
2014-Aug-27 19:06N 58°21' E 011°26'1 1.3
2014-Aug-27 18:32N 58°21' E 011°25'8 8.6
2014-Aug-27 17:33N 58°15' E 011°13'4 4.1
2014-Aug-27 16:31N 58°11' E 011°12'0 0.0
2014-Aug-27 15:19N 58°11' E 011°12'0 0.0
2014-Aug-27 14:31N 58°11' E 011°12'0 0.0
2014-Aug-27 13:22N 58°11' E 011°12'0 0.0
2014-Aug-27 12:04N 58°11' E 011°12'0 0.0
2014-Aug-27 06:10N 58°11' E 011°12'0 0.0
2014-Aug-27 05:28N 58°11' E 011°12'0 0.0
2014-Aug-27 04:07N 58°11' E 011°12'0 0.0
2014-Aug-27 02:28N 58°11' E 011°12'0 0.0
2014-Aug-27 00:31N 58°11' E 011°12'0 0.0
2014-Aug-26 21:22N 58°11' E 011°12'0 0.0
2014-Aug-26 20:10N 58°11' E 011°12'0 0.0
2014-Aug-26 12:28N 58°11' E 011°12'0 0.0
2014-Aug-26 11:31N 58°11' E 011°12'1 0.3
2014-Aug-26 07:33N 58°10' E 011°13'1313.3
2014-Aug-26 06:33N 57°57' E 011°17'1110.5
2014-Aug-26 05:33N 57°47' E 011°20'9 8.7
2014-Aug-26 04:33N 57°38' E 011°22'10 9.7
2014-Aug-26 03:33N 57°30' E 011°33'1010.1
2014-Aug-26 02:32N 57°22' E 011°43'1010.0
2014-Aug-26 01:32N 57°13' E 011°53'45 8.9
2014-Aug-25 20:28N 56°30' E 012°18'7 7.2
2014-Aug-25 19:33N 56°24' E 012°21'8 8.2
2014-Aug-25 18:33N 56°16' E 012°26'8 8.3
2014-Aug-25 17:33N 56°08' E 012°32'9 8.9
2014-Aug-25 16:33N 56°01' E 012°41'3 3.1
2014-Aug-25 15:31N 55°58' E 012°44'0 0.0
2014-Aug-25 14:31N 55°58' E 012°44'0 0.0
2014-Aug-25 13:31N 55°58' E 012°44'0 0.0
2014-Aug-25 12:31N 55°58' E 012°44'0 0.0
2014-Aug-25 11:31N 55°58' E 012°44'0 0.0
2014-Aug-25 10:31N 55°58' E 012°44'0 0.0
2014-Aug-25 09:31N 55°58' E 012°44'0 0.0
2014-Aug-25 08:31N 55°58' E 012°44'0 0.0
2014-Aug-25 07:31N 55°58' E 012°44'0 0.0
2014-Aug-25 06:31N 55°58' E 012°44'0 0.0
2014-Aug-25 05:31N 55°58' E 012°44'0 0.0
2014-Aug-25 04:31N 55°58' E 012°44'0 0.0
2014-Aug-25 03:31N 55°58' E 012°44'0 0.0
2014-Aug-25 02:31N 55°58' E 012°44'0 0.0
2014-Aug-25 01:31N 55°58' E 012°44'0 0.0
2014-Aug-25 00:31N 55°58' E 012°44'0 0.0
2014-Aug-24 23:31N 55°58' E 012°44'0 0.0
2014-Aug-24 22:31N 55°58' E 012°44'0 0.0
2014-Aug-24 21:31N 55°58' E 012°44'0 0.0
2014-Aug-24 20:31N 55°58' E 012°44'0 0.0
2014-Aug-24 19:31N 55°58' E 012°44'0 0.0
2014-Aug-24 18:31N 55°58' E 012°44'0 0.0
2014-Aug-24 17:31N 55°58' E 012°44'0 0.0
2014-Aug-24 16:31N 55°58' E 012°44'0 0.0
2014-Aug-24 15:31N 55°58' E 012°44'0 0.0
2014-Aug-24 14:31N 55°58' E 012°44'0 0.0
2014-Aug-24 13:31N 55°58' E 012°44'0 0.0
2014-Aug-24 12:31N 55°58' E 012°44'0 0.0
2014-Aug-24 11:31N 55°58' E 012°44'0 0.0
2014-Aug-24 10:31N 55°58' E 012°44'0 0.0
2014-Aug-24 09:31N 55°58' E 012°44'8 8.6
2014-Aug-24 08:33N 55°50' E 012°44'1313.1
2014-Aug-24 07:33N 55°37' E 012°42'1111.2
2014-Aug-24 06:33N 55°26' E 012°41'8 8.3
2014-Aug-24 05:33N 55°18' E 012°45'9 8.8
2014-Aug-24 04:33N 55°16' E 012°60'8 8.3
2014-Aug-24 03:33N 55°15' E 013°15'8 8.2
2014-Aug-24 02:33N 55°15' E 013°29'10 8.6
2014-Aug-24 01:26N 55°14' E 013°46'16 8.5
2014-Aug-23 23:31N 55°13' E 014°14'8 8.2
2014-Aug-23 22:33N 55°19' E 014°24'9 9.1
2014-Aug-23 21:31N 55°26' E 014°34'8 8.4
2014-Aug-23 20:33N 55°31' E 014°47'10 8.2
2014-Aug-23 19:20N 55°36' E 015°02'128 8.1
2014-Aug-23 03:33N 57°14' E 017°30'9 8.9
2014-Aug-23 02:33N 57°22' E 017°36'9 8.7
2014-Aug-23 01:33N 57°30' E 017°42'  

Dump ship's entire track history